createdAt,value
2022-10-05T00:03:02.542Z,18.18
2022-10-05T00:09:51.409Z,18.16
2022-10-05T00:16:38.569Z,18.09
2022-10-05T00:23:32.527Z,18.02
2022-10-05T00:30:22.200Z,18.01
2022-10-05T00:37:08.137Z,17.58
2022-10-05T00:44:18.201Z,17.88
2022-10-05T00:51:27.118Z,17.80
2022-10-05T00:58:23.917Z,17.75
2022-10-05T01:05:18.910Z,17.66
2022-10-05T01:12:12.453Z,16.99
2022-10-05T01:19:09.665Z,17.57
2022-10-05T01:26:16.769Z,17.46
2022-10-05T01:33:13.461Z,17.37
2022-10-05T01:40:09.766Z,17.34
2022-10-05T01:47:04.485Z,17.32
2022-10-05T01:54:09.536Z,17.01
2022-10-05T02:01:06.601Z,17.16
2022-10-05T02:07:59.467Z,17.12
2022-10-05T02:14:52.753Z,17.12
2022-10-05T02:21:40.374Z,17.12
2022-10-05T02:28:32.355Z,16.58
2022-10-05T02:43:26.894Z,16.74
2022-10-05T03:04:17.320Z,16.56
2022-10-05T03:11:12.734Z,16.68
2022-10-05T03:18:10.832Z,16.29
2022-10-05T03:25:35.222Z,16.57
2022-10-05T03:32:33.263Z,16.42
2022-10-05T03:39:29.132Z,16.45
2022-10-05T03:46:28.243Z,16.42
2022-10-05T03:53:21.581Z,16.41
2022-10-05T04:00:15.493Z,16.39
2022-10-05T04:07:18.223Z,16.34
2022-10-05T04:14:10.229Z,16.31
2022-10-05T04:21:01.801Z,16.12
2022-10-05T04:27:55.604Z,16.12
2022-10-05T04:34:56.005Z,16.18
2022-10-05T04:42:06.342Z,16.24
2022-10-05T04:49:36.766Z,16.29
2022-10-05T04:56:32.798Z,16.28
2022-10-05T05:04:00.239Z,16.27
2022-10-05T05:11:19.991Z,16.26
2022-10-05T05:18:36.452Z,16.13
2022-10-05T05:25:37.391Z,15.89
2022-10-05T05:32:42.640Z,15.95
2022-10-05T05:39:32.411Z,15.80
2022-10-05T05:46:51.300Z,15.83
2022-10-05T05:53:42.575Z,15.90
2022-10-05T06:00:34.465Z,15.58
2022-10-05T06:07:30.763Z,16.04
2022-10-05T06:14:27.860Z,16.04
2022-10-05T06:21:23.654Z,16.04
2022-10-05T06:28:13.821Z,15.97
2022-10-05T06:35:25.421Z,16.00
2022-10-05T06:42:35.272Z,16.01
2022-10-05T06:49:46.664Z,16.10
2022-10-05T06:57:02.317Z,16.19
2022-10-05T07:04:12.462Z,16.29
2022-10-05T07:11:07.855Z,16.19
2022-10-05T07:18:13.394Z,16.06
2022-10-05T07:25:08.927Z,15.85
2022-10-05T07:32:09.179Z,15.84
2022-10-05T07:39:07.942Z,15.94
2022-10-05T07:46:01.676Z,16.00
2022-10-05T07:52:53.389Z,16.20
2022-10-05T07:59:51.234Z,16.29
2022-10-05T08:06:51.954Z,16.16
2022-10-05T08:13:47.693Z,16.61
2022-10-05T08:20:47.684Z,16.71
2022-10-05T08:27:44.900Z,16.96
2022-10-05T08:34:37.361Z,17.26
2022-10-05T08:42:20.359Z,17.50
2022-10-05T08:50:02.045Z,17.34
2022-10-05T08:57:00.930Z,17.84
2022-10-05T09:04:22.451Z,17.36
2022-10-05T09:11:14.614Z,18.25
2022-10-05T09:19:03.118Z,18.58
2022-10-05T09:26:11.555Z,18.86
2022-10-05T09:33:33.642Z,19.26
2022-10-05T09:41:01.033Z,19.63
2022-10-05T09:48:45.496Z,19.95
2022-10-05T09:56:12.777Z,20.20
2022-10-05T10:04:07.086Z,20.57
2022-10-05T10:11:21.698Z,20.67
2022-10-05T10:18:37.673Z,20.68
2022-10-05T10:25:50.210Z,20.73
2022-10-05T10:33:20.114Z,20.89
2022-10-05T10:40:42.427Z,21.02
2022-10-05T10:47:47.160Z,21.14
2022-10-05T10:55:02.360Z,21.17
2022-10-05T11:02:28.644Z,21.35
2022-10-05T11:09:42.741Z,21.45
2022-10-05T11:17:16.720Z,21.60
2022-10-05T11:24:45.164Z,21.96
2022-10-05T11:32:20.580Z,22.20
2022-10-05T11:39:37.006Z,21.87
2022-10-05T11:46:33.062Z,22.45
2022-10-05T11:53:26.888Z,22.61
2022-10-05T12:00:22.462Z,22.81
2022-10-05T12:07:21.698Z,23.10
2022-10-05T12:14:17.865Z,23.35
2022-10-05T12:21:08.932Z,23.68
2022-10-05T12:28:00.239Z,23.83
2022-10-05T12:35:01.715Z,24.05
2022-10-05T12:41:59.171Z,23.93
2022-10-05T12:49:07.979Z,24.50
2022-10-05T12:56:02.885Z,24.66
2022-10-05T13:02:52.782Z,24.79
2022-10-05T13:09:45.570Z,24.93
2022-10-05T13:16:39.962Z,25.08
2022-10-05T13:23:39.763Z,25.19
2022-10-05T13:30:25.544Z,25.01
2022-10-05T13:37:18.159Z,25.63
2022-10-05T13:44:22.828Z,25.04
2022-10-05T13:51:17.836Z,25.45
2022-10-05T13:58:10.253Z,25.52
2022-10-05T14:05:04.909Z,25.51
2022-10-05T14:12:14.903Z,25.59
2022-10-05T14:19:18.607Z,25.63
2022-10-05T14:26:12.028Z,25.64
2022-10-05T14:33:00.584Z,25.49
2022-10-05T14:39:45.932Z,25.42
2022-10-05T14:46:38.675Z,25.27
2022-10-05T14:53:26.196Z,25.30
2022-10-05T15:00:16.486Z,25.33
2022-10-05T15:07:21.070Z,25.01
2022-10-05T15:14:17.908Z,25.34
2022-10-05T15:21:36.935Z,25.30
2022-10-05T15:28:40.674Z,25.24
2022-10-05T15:36:05.351Z,25.16
2022-10-05T15:42:52.735Z,25.01
2022-10-05T15:49:51.965Z,25.02
2022-10-05T15:56:42.113Z,24.96
2022-10-05T16:03:37.302Z,24.52
2022-10-05T16:10:27.258Z,24.38
2022-10-05T16:17:27.834Z,24.61
2022-10-05T16:24:40.009Z,23.77
2022-10-05T16:31:37.621Z,24.45
2022-10-05T16:38:38.726Z,24.44
2022-10-05T16:45:45.027Z,24.49
2022-10-05T16:52:35.781Z,24.49
2022-10-05T17:00:03.330Z,24.50
2022-10-05T17:07:16.832Z,24.42
2022-10-05T17:14:24.509Z,24.39
2022-10-05T17:21:21.455Z,24.43
2022-10-05T17:28:26.380Z,24.39
2022-10-05T17:35:58.197Z,24.51
2022-10-05T17:42:52.309Z,24.37
2022-10-05T17:50:12.809Z,24.43
2022-10-05T17:57:24.363Z,24.43
2022-10-05T18:04:52.061Z,24.27
2022-10-05T18:11:43.471Z,23.96
2022-10-05T18:18:57.786Z,23.61
2022-10-05T18:25:51.050Z,23.54
2022-10-05T18:33:11.183Z,23.55
2022-10-05T18:40:24.566Z,23.51
2022-10-05T18:47:22.192Z,23.35
2022-10-05T18:54:24.953Z,23.11
2022-10-05T19:01:41.325Z,22.84
2022-10-05T19:08:36.097Z,22.70
2022-10-05T19:15:30.279Z,22.25
2022-10-05T19:22:31.278Z,22.55
2022-10-05T19:29:35.946Z,22.48
2022-10-05T19:36:46.785Z,22.33
2022-10-05T19:44:08.894Z,22.02
2022-10-05T19:50:58.435Z,22.12
2022-10-05T19:57:51.306Z,21.83
2022-10-05T20:04:43.161Z,21.75
2022-10-05T20:11:29.321Z,21.86
2022-10-05T20:18:52.096Z,21.83
2022-10-05T20:25:41.538Z,21.52
2022-10-05T20:32:30.730Z,21.48
2022-10-05T20:39:16.912Z,21.47
2022-10-05T20:46:04.902Z,21.37
2022-10-05T20:52:50.568Z,21.37
2022-10-05T20:59:37.641Z,21.29
2022-10-05T21:06:26.337Z,21.20
2022-10-05T21:13:12.881Z,21.06
2022-10-05T21:19:58.419Z,20.87
2022-10-05T21:26:47.759Z,21.15
2022-10-05T21:33:33.140Z,21.18
2022-10-05T21:40:19.532Z,21.09
2022-10-05T21:47:07.495Z,21.17
2022-10-05T21:53:57.854Z,21.08
2022-10-05T22:00:43.276Z,21.09
2022-10-05T22:07:35.119Z,20.93
2022-10-05T22:14:21.097Z,20.76
2022-10-05T22:21:07.915Z,20.75
2022-10-05T22:27:55.920Z,20.68
2022-10-05T22:34:41.313Z,20.68
2022-10-05T22:41:26.717Z,20.75
2022-10-05T22:48:15.897Z,20.93
2022-10-05T22:55:01.393Z,21.14
2022-10-05T23:01:46.856Z,21.28
2022-10-05T23:08:35.290Z,21.04
2022-10-05T23:15:21.020Z,21.00
2022-10-05T23:22:06.856Z,20.52
2022-10-05T23:28:55.084Z,20.50
2022-10-05T23:35:40.412Z,20.41
2022-10-05T23:42:26.430Z,19.54
2022-10-05T23:49:14.809Z,20.31
2022-10-05T23:56:00.254Z,20.31
